Forsyth, Montana
Current Conditions -  °F | °C
As of 1:53 AM on Saturday 22 Nov 2014 (Local Time) from KMLS Reporting Station
Clear Clear  
Wind Chill: 24°   Ceiling: Unl
Heat Index: 32°   Visibility: 10mi
Dew Point: 25°   Wind: 9mph
Humidity: 75%   Direction: 170°S
Pressure: 29.57"   Gusts: NA
Location:  46.27°N, 106.68°W
Report Text: KMLS 220853Z AUTO 17008KT 10SM CLR 00/M04 A2957 RMK AO2 SLP026 T00001039 58026
Loading
Personal Weather Stations






























Interactive Weather Map New forecast layout! Learn more

10-Day Weather Forecast

Advertisements
Track Severe Weather on mobile